Time;durP1;ratioP1;P1;durP2;ratioP2;P2;SDS_P1;SDS_P2;PMS_P1;PMS_P2;Temp;Humidity;BMP_temperature;BMP_pressure;BME280_temperature;BME280_humidity;BME280_pressure;Samples;Min_cycle;Max_cycle;Signal;HPM_P1;HPM_P2
2020/12/19 00:00:46;;;;;;;4.68;2.50;;;21.20;48.30;;;;;;5047077;28;20462;-38
2020/12/19 00:03:11;;;;;;;4.13;2.85;;;21.20;48.30;;;;;;5030019;28;20025;-52
2020/12/19 00:05:37;;;;;;;3.97;2.70;;;21.20;48.30;;;;;;5029371;28;20546;-47
2020/12/19 00:08:03;;;;;;;3.78;2.40;;;21.10;48.20;;;;;;5030144;28;20096;-40
2020/12/19 00:10:29;;;;;;;3.35;2.28;;;21.10;48.20;;;;;;5029258;28;20036;-47
2020/12/19 00:12:59;;;;;;;4.32;2.80;;;21.10;48.10;;;;;;5030138;28;20490;-40
2020/12/19 00:15:26;;;;;;;4.68;2.80;;;21.10;48.10;;;;;;5028171;28;20029;-46
2020/12/19 00:17:52;;;;;;;6.03;3.50;;;21.00;48.10;;;;;;5029950;28;20036;-45
2020/12/19 00:20:18;;;;;;;3.25;2.60;;;21.10;48.20;;;;;;5029899;28;20411;-55
2020/12/19 00:22:44;;;;;;;3.75;2.30;;;21.00;48.10;;;;;;5033826;28;20478;-46
2020/12/19 00:25:10;;;;;;;4.65;3.17;;;21.00;48.10;;;;;;5036010;28;20032;-49
2020/12/19 00:27:36;;;;;;;4.97;2.60;;;21.00;48.10;;;;;;5032081;28;20521;-48
2020/12/19 00:30:06;;;;;;;2.92;2.53;;;21.00;48.00;;;;;;5036489;28;20033;-50
2020/12/19 00:32:31;;;;;;;5.22;2.60;;;21.00;48.00;;;;;;5035708;28;20052;-46
2020/12/19 00:34:57;;;;;;;3.45;3.08;;;21.00;48.00;;;;;;5036991;28;20105;-38
2020/12/19 00:37:24;;;;;;;4.22;3.30;;;21.00;48.10;;;;;;5035373;28;20371;-44
2020/12/19 00:39:51;;;;;;;2.92;2.42;;;21.00;48.00;;;;;;5036417;28;20041;-44
2020/12/19 00:42:17;;;;;;;3.58;2.78;;;21.00;48.00;;;;;;5036087;28;20021;-53
2020/12/19 00:44:43;;;;;;;3.35;2.65;;;21.00;47.90;;;;;;5035955;28;20029;-47
2020/12/19 00:47:08;;;;;;;3.88;2.60;;;20.90;47.90;;;;;;5036265;28;20042;-48
2020/12/19 00:49:34;;;;;;;3.88;2.60;;;21.00;48.00;;;;;;5035636;28;20040;-46
2020/12/19 00:51:59;;;;;;;4.38;2.63;;;21.00;47.90;;;;;;5035896;28;20037;-46
2020/12/19 00:54:25;;;;;;;3.08;2.47;;;20.90;47.80;;;;;;5035758;28;20455;-46
2020/12/19 00:56:52;;;;;;;3.30;2.45;;;20.90;47.80;;;;;;5036495;28;20049;-47
2020/12/19 00:59:18;;;;;;;5.55;2.92;;;20.90;47.80;;;;;;5035756;28;20035;-54
2020/12/19 01:01:44;;;;;;;3.28;2.50;;;20.90;47.80;;;;;;5037195;28;20033;-46
2020/12/19 01:04:09;;;;;;;3.25;2.25;;;20.90;47.80;;;;;;5037979;28;20379;-48
2020/12/19 01:06:35;;;;;;;4.40;2.42;;;20.90;47.80;;;;;;5034585;28;20033;-46
2020/12/19 01:09:02;;;;;;;3.53;2.60;;;20.90;47.70;;;;;;5036920;28;20033;-45
2020/12/19 01:11:29;;;;;;;3.03;2.15;;;20.90;47.70;;;;;;5036791;28;20029;-44
2020/12/19 01:13:55;;;;;;;3.85;2.60;;;20.90;47.60;;;;;;5035826;28;20116;-48
2020/12/19 01:16:25;;;;;;;3.10;2.22;;;20.90;47.60;;;;;;5035465;28;20037;-53
2020/12/19 01:18:52;;;;;;;3.63;2.40;;;21.00;47.60;;;;;;5037477;28;20112;-44
2020/12/19 01:21:21;;;;;;;3.13;2.30;;;20.90;47.50;;;;;;5037192;28;20026;-55
2020/12/19 01:23:48;;;;;;;4.43;2.75;;;20.90;47.50;;;;;;5037276;28;20430;-46
2020/12/19 01:26:15;;;;;;;3.88;2.33;;;20.90;47.50;;;;;;5037177;28;20385;-46
2020/12/19 01:28:41;;;;;;;4.75;2.40;;;20.90;47.50;;;;;;5035809;28;20021;-47
2020/12/19 01:31:08;;;;;;;4.25;2.67;;;20.90;47.50;;;;;;5036899;28;20083;-47
2020/12/19 01:33:35;;;;;;;3.08;2.40;;;20.90;47.40;;;;;;5033799;28;20046;-48
2020/12/19 01:36:02;;;;;;;4.13;2.53;;;20.90;47.40;;;;;;5032316;28;20072;-49
2020/12/19 01:38:28;;;;;;;3.65;2.42;;;20.90;47.40;;;;;;5032815;28;20025;-47
2020/12/19 01:40:56;;;;;;;3.78;2.30;;;20.90;47.40;;;;;;5033043;28;20025;-43
2020/12/19 01:43:22;;;;;;;4.38;2.53;;;20.80;47.30;;;;;;5032287;28;20072;-55
2020/12/19 01:45:49;;;;;;;3.75;2.50;;;20.80;47.30;;;;;;5033624;28;20091;-44
2020/12/19 01:48:26;;;;;;;3.00;2.10;;;20.80;47.30;;;;;;5033171;28;20025;-46
2020/12/19 01:50:53;;;;;;;3.97;2.70;;;20.80;47.30;;;;;;5028079;28;20029;-46
2020/12/19 01:53:22;;;;;;;4.60;2.55;;;20.80;47.30;;;;;;5033070;28;20113;-53
2020/12/19 01:55:52;;;;;;;2.78;2.28;;;20.80;47.30;;;;;;5033332;28;20045;-47
2020/12/19 01:58:18;;;;;;;4.18;2.30;;;20.80;47.30;;;;;;5033447;28;20390;-55
2020/12/19 02:00:44;;;;;;;2.97;2.40;;;20.80;47.20;;;;;;5033845;28;20479;-44
2020/12/19 02:03:10;;;;;;;3.35;2.10;;;20.80;47.20;;;;;;5033611;28;20049;-46
2020/12/19 02:05:41;;;;;;;2.45;2.00;;;20.80;47.20;;;;;;5032704;28;20101;-52
2020/12/19 02:08:07;;;;;;;4.43;2.35;;;20.80;47.20;;;;;;5033571;28;20032;-51
2020/12/19 02:10:34;;;;;;;4.47;2.42;;;20.80;47.10;;;;;;5032657;28;20398;-45
2020/12/19 02:13:04;;;;;;;3.30;2.20;;;20.80;47.20;;;;;;5033312;28;20037;-46
2020/12/19 02:15:44;;;;;;;2.72;1.70;;;20.80;47.20;;;;;;5032810;28;20029;-46
2020/12/19 02:18:11;;;;;;;2.05;1.83;;;20.80;47.10;;;;;;5033117;28;20040;-46
2020/12/19 02:20:37;;;;;;;2.95;2.17;;;20.80;47.10;;;;;;5032444;28;20037;-46
2020/12/19 02:23:05;;;;;;;2.55;2.00;;;20.80;47.10;;;;;;5048596;28;20117;-46
2020/12/19 02:25:32;;;;;;;2.85;2.38;;;20.80;47.10;;;;;;5030902;28;20052;-46
2020/12/19 02:28:00;;;;;;;3.53;2.45;;;20.70;47.00;;;;;;5033146;28;20463;-46
2020/12/19 02:30:26;;;;;;;3.40;1.92;;;20.80;47.10;;;;;;5032310;28;20112;-46
2020/12/19 02:32:51;;;;;;;3.10;2.28;;;20.80;47.10;;;;;;5033219;28;20160;-46
2020/12/19 02:35:17;;;;;;;3.28;2.13;;;20.70;47.00;;;;;;5033052;28;20065;-46
2020/12/19 02:37:43;;;;;;;2.72;1.95;;;20.70;47.00;;;;;;5032139;28;20033;-46
2020/12/19 02:40:08;;;;;;;2.97;2.13;;;20.70;46.90;;;;;;5032877;28;20025;-46
2020/12/19 02:42:34;;;;;;;3.22;2.90;;;20.80;47.00;;;;;;5032205;28;20458;-47
2020/12/19 02:44:59;;;;;;;3.10;1.83;;;20.70;46.90;;;;;;5024352;28;20063;-38
2020/12/19 02:47:25;;;;;;;4.18;2.20;;;20.70;47.00;;;;;;5032244;28;20076;-46
2020/12/19 02:49:51;;;;;;;2.92;2.28;;;20.70;46.90;;;;;;5032670;28;20025;-46
2020/12/19 02:52:16;;;;;;;2.95;1.90;;;20.70;46.90;;;;;;5032618;28;20033;-45
2020/12/19 02:54:42;;;;;;;2.70;2.10;;;20.70;46.90;;;;;;5031793;28;20458;-47
2020/12/19 02:57:07;;;;;;;3.10;1.80;;;20.70;46.90;;;;;;5032177;28;20041;-46
2020/12/19 02:59:33;;;;;;;3.03;2.10;;;20.70;46.90;;;;;;5031706;28;20022;-46
2020/12/19 03:01:59;;;;;;;4.05;2.00;;;20.70;46.80;;;;;;5032372;28;20029;-47
2020/12/19 03:04:24;;;;;;;2.85;2.00;;;20.70;46.90;;;;;;5031274;28;20037;-46
2020/12/19 03:06:50;;;;;;;3.13;1.92;;;20.70;46.90;;;;;;5032292;28;20044;-46
2020/12/19 03:09:18;;;;;;;2.33;2.00;;;20.70;46.80;;;;;;5032385;28;20124;-58
2020/12/19 03:11:44;;;;;;;2.58;2.00;;;20.70;46.80;;;;;;5031647;28;20026;-45
2020/12/19 03:14:09;;;;;;;2.42;1.75;;;20.70;46.80;;;;;;5032244;28;20079;-46
2020/12/19 03:16:35;;;;;;;1.75;1.50;;;20.70;46.80;;;;;;5030953;28;20034;-43
2020/12/19 03:19:00;;;;;;;4.03;2.03;;;20.70;46.80;;;;;;5032040;28;20103;-46
2020/12/19 03:21:26;;;;;;;2.83;2.15;;;20.70;46.80;;;;;;5031255;28;20033;-46
2020/12/19 03:23:52;;;;;;;2.65;2.30;;;20.70;46.80;;;;;;5031213;28;20057;-46
2020/12/19 03:26:17;;;;;;;2.72;2.13;;;20.70;46.80;;;;;;5031890;28;20069;-45
2020/12/19 03:28:43;;;;;;;2.85;1.75;;;20.70;46.70;;;;;;5031411;28;20136;-46
2020/12/19 03:31:09;;;;;;;2.67;2.13;;;20.70;46.80;;;;;;5032038;28;20029;-47
2020/12/19 03:33:34;;;;;;;2.65;2.28;;;20.70;46.70;;;;;;5029660;28;20136;-47
2020/12/19 03:36:00;;;;;;;2.30;1.80;;;20.70;46.70;;;;;;5031790;28;20049;-50
2020/12/19 03:38:25;;;;;;;2.60;1.85;;;20.70;46.70;;;;;;5031649;28;20030;-46
2020/12/19 03:40:51;;;;;;;3.97;2.88;;;20.70;46.70;;;;;;5031632;28;20059;-46
2020/12/19 03:43:17;;;;;;;2.42;1.83;;;20.70;46.70;;;;;;5031290;28;20044;-46
2020/12/19 03:45:42;;;;;;;2.72;2.08;;;20.70;46.70;;;;;;5031436;28;20110;-46
2020/12/19 03:48:08;;;;;;;3.55;2.10;;;20.70;46.60;;;;;;5031982;28;20029;-46
2020/12/19 03:50:34;;;;;;;2.88;1.98;;;20.70;46.60;;;;;;5031068;28;20026;-46
2020/12/19 03:52:59;;;;;;;3.88;1.85;;;20.70;46.60;;;;;;5031942;28;20406;-46
2020/12/19 03:55:25;;;;;;;2.40;1.67;;;20.70;46.60;;;;;;5030719;28;20028;-49
2020/12/19 03:57:50;;;;;;;3.13;1.63;;;20.70;46.60;;;;;;5030965;28;20383;-45
2020/12/19 04:00:16;;;;;;;2.47;1.92;;;20.70;46.50;;;;;;5031779;28;20029;-45
2020/12/19 04:02:42;;;;;;;1.70;1.35;;;20.70;46.50;;;;;;5030488;28;20021;-47
2020/12/19 04:05:10;;;;;;;2.17;1.65;;;20.70;46.50;;;;;;5024042;28;20113;-46
2020/12/19 04:07:36;;;;;;;2.25;1.80;;;20.70;46.50;;;;;;5030784;28;20033;-43
2020/12/19 04:10:03;;;;;;;2.92;2.20;;;20.70;46.50;;;;;;5030100;28;20363;-43
2020/12/19 04:12:29;;;;;;;2.13;1.80;;;20.70;46.50;;;;;;5030908;28;20029;-46
2020/12/19 04:14:55;;;;;;;1.80;1.52;;;20.70;46.40;;;;;;5031183;28;20108;-46
2020/12/19 04:17:20;;;;;;;5.28;2.35;;;20.70;46.40;;;;;;5031269;28;20129;-48
2020/12/19 04:19:46;;;;;;;2.78;1.63;;;20.70;46.30;;;;;;5030516;28;20033;-44
2020/12/19 04:22:11;;;;;;;3.22;1.92;;;20.70;46.40;;;;;;5031374;28;20083;-43
2020/12/19 04:24:37;;;;;;;2.28;2.00;;;20.70;46.40;;;;;;5030440;28;20080;-46
2020/12/19 04:27:03;;;;;;;2.33;1.88;;;20.70;46.30;;;;;;5031429;28;20379;-46
2020/12/19 04:29:31;;;;;;;2.75;1.75;;;20.70;46.30;;;;;;5030142;28;20030;-42
2020/12/19 04:31:57;;;;;;;3.65;1.95;;;20.70;46.30;;;;;;5031276;28;20025;-46
2020/12/19 04:34:24;;;;;;;1.95;1.75;;;20.70;46.30;;;;;;5031428;28;20049;-56
2020/12/19 04:36:50;;;;;;;1.77;1.58;;;20.70;46.20;;;;;;5030458;28;20501;-47
2020/12/19 04:39:17;;;;;;;2.60;1.60;;;20.70;46.20;;;;;;5031347;28;20025;-45
2020/12/19 04:41:42;;;;;;;2.03;1.63;;;20.70;46.20;;;;;;5030543;28;20056;-45
2020/12/19 04:44:08;;;;;;;2.15;1.52;;;20.70;46.20;;;;;;5030767;28;20383;-46
2020/12/19 04:46:39;;;;;;;3.78;1.83;;;20.70;46.20;;;;;;5030150;28;20029;-46
2020/12/19 04:49:06;;;;;;;2.55;1.95;;;20.70;46.20;;;;;;5031095;28;20034;-49
2020/12/19 04:51:33;;;;;;;2.25;2.05;;;20.70;46.10;;;;;;5030158;28;20104;-46
2020/12/19 04:53:59;;;;;;;2.10;1.63;;;20.70;46.10;;;;;;5031193;28;20025;-46
2020/12/19 04:56:24;;;;;;;3.53;2.10;;;20.70;46.10;;;;;;5030529;28;20060;-55
2020/12/19 04:58:54;;;;;;;1.67;1.52;;;20.80;46.80;;;;;;5030675;28;20043;-46
2020/12/19 05:01:20;;;;;;;2.20;1.63;;;20.70;46.10;;;;;;5031241;28;20033;-46
2020/12/19 05:03:50;;;;;;;3.05;1.98;;;20.70;46.00;;;;;;5045345;28;20018;-46
2020/12/19 05:06:23;;;;;;;2.92;1.88;;;20.70;46.10;;;;;;5030797;28;20037;-46
2020/12/19 05:08:50;;;;;;;2.95;2.22;;;20.70;46.10;;;;;;5032356;28;20033;-46
2020/12/19 05:11:16;;;;;;;4.70;2.15;;;20.70;46.00;;;;;;5034606;28;20036;-48
2020/12/19 05:13:44;;;;;;;2.42;1.80;;;20.70;46.00;;;;;;5033933;28;20037;-47
2020/12/19 05:16:11;;;;;;;2.08;1.70;;;20.70;46.00;;;;;;5033962;28;20579;-46
2020/12/19 05:18:38;;;;;;;2.25;1.75;;;20.70;46.00;;;;;;5033695;28;20025;-53
2020/12/19 05:21:08;;;;;;;2.35;1.60;;;20.70;46.00;;;;;;5034603;28;20025;-44
2020/12/19 05:23:34;;;;;;;2.72;1.77;;;20.80;46.00;;;;;;5033831;28;20030;-41
2020/12/19 05:26:02;;;;;;;2.78;1.60;;;20.70;46.00;;;;;;5033323;28;20053;-45
2020/12/19 05:28:28;;;;;;;1.95;1.60;;;20.80;46.00;;;;;;5033767;28;20025;-54
2020/12/19 05:30:57;;;;;;;2.22;1.80;;;20.80;46.00;;;;;;5034222;28;20083;-45
2020/12/19 05:33:22;;;;;;;2.00;1.48;;;20.70;46.00;;;;;;5049101;28;20073;-44
2020/12/19 05:35:48;;;;;;;3.50;1.77;;;20.80;46.70;;;;;;5033584;28;20061;-46
2020/12/19 05:38:14;;;;;;;1.88;1.50;;;20.80;45.90;;;;;;5049381;28;20041;-46
2020/12/19 05:40:40;;;;;;;2.13;1.30;;;20.80;46.00;;;;;;5033382;28;20351;-46
2020/12/19 05:43:05;;;;;;;2.17;1.67;;;20.80;46.00;;;;;;5049414;28;20092;-45
2020/12/19 05:45:31;;;;;;;2.20;1.50;;;20.80;45.90;;;;;;5032898;28;20478;-46
2020/12/19 05:47:57;;;;;;;2.30;1.60;;;20.80;45.90;;;;;;5033694;28;20041;-39
2020/12/19 05:50:23;;;;;;;3.08;1.80;;;20.80;45.90;;;;;;5033573;28;20033;-51
2020/12/19 05:52:49;;;;;;;2.95;1.77;;;20.80;45.90;;;;;;5031912;28;20533;-44
2020/12/19 05:55:17;;;;;;;2.08;1.48;;;20.80;45.80;;;;;;5031433;28;20033;-50
2020/12/19 05:57:44;;;;;;;2.33;1.50;;;20.80;45.80;;;;;;5032462;28;20030;-50
2020/12/19 06:00:14;;;;;;;2.30;1.60;;;20.80;45.90;;;;;;5030826;28;20189;-56
2020/12/19 06:02:41;;;;;;;3.50;1.65;;;20.80;45.80;;;;;;5031033;28;20421;-41
2020/12/19 06:05:11;;;;;;;2.35;1.63;;;20.80;45.90;;;;;;5032602;28;20037;-47
2020/12/19 06:07:42;;;;;;;2.83;1.70;;;20.90;46.00;;;;;;5032763;28;20379;-44
2020/12/19 06:10:10;;;;;;;5.47;1.90;;;20.90;46.80;;;;;;5033091;28;20536;-44
2020/12/19 06:13:01;;;;;;;3.47;1.60;;;21.00;46.80;;;;;;5032488;28;20025;-47
2020/12/19 06:15:27;;;;;;;3.50;1.70;;;21.10;46.70;;;;;;5028537;28;20042;-54
2020/12/19 06:18:43;;;;;;;10.48;1.77;;;21.10;46.70;;;;;;5048078;28;20037;-43
2020/12/19 06:21:10;;;;;;;2.13;1.40;;;21.20;46.80;;;;;;5030523;28;20044;-59
2020/12/19 06:23:37;;;;;;;3.83;1.70;;;21.30;46.70;;;;;;5031742;28;20060;-46
2020/12/19 06:26:04;;;;;;;2.38;1.60;;;21.30;46.80;;;;;;5033048;28;20538;-40
2020/12/19 06:28:41;;;;;;;1.73;1.48;;;21.30;46.70;;;;;;5032250;28;20029;-60
2020/12/19 06:31:09;;;;;;;2.50;1.60;;;21.20;46.70;;;;;;5032423;28;20034;-40
2020/12/19 06:33:37;;;;;;;4.68;2.80;;;21.20;46.60;;;;;;5031383;28;20054;-47
2020/12/19 06:36:15;;;;;;;2.17;1.60;;;21.20;46.80;;;;;;5032979;28;20433;-44
2020/12/19 06:38:43;;;;;;;2.70;1.52;;;21.20;46.80;;;;;;5031705;28;20061;-46
2020/12/19 06:41:09;;;;;;;1.90;1.58;;;21.20;46.70;;;;;;5032563;28;20032;-58
2020/12/19 06:43:35;;;;;;;2.10;1.35;;;21.30;46.80;;;;;;5031872;28;20030;-45
2020/12/19 06:46:01;;;;;;;3.33;1.40;;;21.20;46.80;;;;;;5031054;28;20505;-44
2020/12/19 06:48:34;;;;;;;2.40;1.52;;;21.20;46.90;;;;;;5033059;28;20061;-46
2020/12/19 06:51:04;;;;;;;2.45;1.55;;;21.20;46.90;;;;;;5031568;28;20037;-47
2020/12/19 06:53:31;;;;;;;1.92;1.40;;;21.20;46.80;;;;;;5031838;28;20042;-54
2020/12/19 06:55:59;;;;;;;1.63;1.42;;;21.20;46.80;;;;;;5032821;28;20099;-45
2020/12/19 06:58:30;;;;;;;2.55;1.95;;;21.20;46.80;;;;;;5032438;28;20033;-44
2020/12/19 07:00:57;;;;;;;2.38;1.38;;;21.20;47.40;;;;;;5032004;28;20041;-56
2020/12/19 07:03:55;;;;;;;2.22;1.58;;;21.20;46.70;;;;;;5032355;28;20025;-44
2020/12/19 07:06:21;;;;;;;5.15;1.17;;;21.20;46.80;;;;;;5015162;28;20049;-44
2020/12/19 07:08:46;;;;;;;2.00;1.30;;;21.20;46.70;;;;;;5031276;28;20033;-58
2020/12/19 07:11:34;;;;;;;3.05;1.63;;;21.20;46.80;;;;;;5031116;28;20021;-45
2020/12/19 07:14:01;;;;;;;3.55;1.73;;;21.20;46.70;;;;;;5032071;28;20025;-46
2020/12/19 07:16:44;;;;;;;1.88;1.42;;;21.20;46.70;;;;;;5030970;28;20037;-41
2020/12/19 07:19:26;;;;;;;1.88;1.20;;;21.20;46.70;;;;;;5031627;28;20955;-48
2020/12/19 07:21:57;;;;;;;3.40;1.63;;;21.20;46.90;;;;;;5031136;28;20194;-44
2020/12/19 07:24:23;;;;;;;2.80;1.40;;;21.20;46.90;;;;;;5031967;28;20035;-59
2020/12/19 07:26:50;;;;;;;3.35;1.90;;;21.10;46.70;;;;;;5031058;28;20022;-45
2020/12/19 07:29:19;;;;;;;2.42;1.88;;;21.10;42.20;;;;;;5030922;28;20402;-48
2020/12/19 07:31:47;;;;;;;3.78;2.60;;;21.00;40.20;;;;;;5030992;28;20052;-46
2020/12/19 07:34:13;;;;;;;6.22;3.40;;;20.60;36.10;;;;;;5031127;28;20049;-45
2020/12/19 07:36:40;;;;;;;6.60;3.90;;;19.20;35.80;;;;;;5031156;28;20116;-45
2020/12/19 07:39:07;;;;;;;5.45;3.53;;;18.30;37.30;;;;;;5041966;28;20099;-40
2020/12/19 07:41:40;;;;;;;5.20;3.78;;;17.70;38.30;;;;;;5031520;28;20049;-54
2020/12/19 07:44:16;;;;;;;8.57;4.55;;;17.30;38.70;;;;;;5031364;28;20035;-47
2020/12/19 07:46:53;;;;;;;6.53;4.18;;;17.00;39.00;;;;;;5029712;28;20034;-47
2020/12/19 07:49:27;;;;;;;5.80;4.10;;;16.70;39.50;;;;;;5030735;28;20021;-46
2020/12/19 07:52:11;;;;;;;4.57;3.88;;;16.60;39.90;;;;;;5030342;28;20052;-46
2020/12/19 07:54:38;;;;;;;6.25;4.00;;;16.60;40.40;;;;;;5030362;28;20104;-52
2020/12/19 07:57:04;;;;;;;7.25;4.30;;;17.10;39.50;;;;;;5031379;28;20479;-44
2020/12/19 07:59:30;;;;;;;5.18;3.80;;;17.70;38.90;;;;;;5029906;28;20604;-46
2020/12/19 08:02:00;;;;;;;4.18;3.53;;;18.30;39.30;;;;;;5030188;28;20109;-43
2020/12/19 08:04:26;;;;;;;4.43;3.15;;;18.80;39.20;;;;;;5031763;28;20029;-46
2020/12/19 08:06:51;;;;;;;4.40;3.00;;;19.20;39.40;;;;;;5030695;28;20034;-42
2020/12/19 08:09:21;;;;;;;4.18;3.42;;;19.50;39.80;;;;;;5031636;28;20474;-52
2020/12/19 08:11:50;;;;;;;4.22;2.78;;;19.70;40.90;;;;;;5030648;28;20494;-45
2020/12/19 08:14:20;;;;;;;4.03;2.92;;;19.90;40.70;;;;;;5031310;28;20348;-46
2020/12/19 08:16:47;;;;;;;4.30;2.70;;;20.00;40.80;;;;;;5030825;28;20037;-46
2020/12/19 08:19:21;;;;;;;3.78;2.60;;;20.10;41.00;;;;;;5030856;28;20469;-41
2020/12/19 08:21:48;;;;;;;4.80;2.38;;;20.10;41.20;;;;;;5030000;28;20022;-44
2020/12/19 08:24:14;;;;;;;3.92;2.80;;;20.20;41.60;;;;;;5030054;28;20067;-49
2020/12/19 08:26:40;;;;;;;3.63;2.70;;;20.30;41.60;;;;;;5029356;28;20037;-37
2020/12/19 08:29:08;;;;;;;4.93;2.50;;;20.40;41.80;;;;;;5030549;28;20037;-52
2020/12/19 08:31:37;;;;;;;5.72;3.42;;;20.40;41.90;;;;;;5029976;28;20032;-53
2020/12/19 08:34:10;;;;;;;4.22;2.42;;;20.40;42.20;;;;;;5031160;28;20100;-46
2020/12/19 08:36:37;;;;;;;5.05;2.58;;;20.50;42.30;;;;;;5028623;28;20540;-58
2020/12/19 08:39:16;;;;;;;4.07;2.67;;;20.50;42.40;;;;;;5029411;28;20037;-47
2020/12/19 08:41:42;;;;;;;12.88;2.67;;;20.60;42.70;;;;;;5026822;28;20458;-44
2020/12/19 08:44:25;;;;;;;13.02;2.83;;;20.70;42.70;;;;;;5033679;28;20039;-43
2020/12/19 08:47:06;;;;;;;8.27;2.45;;;20.70;42.80;;;;;;5034124;28;20036;-45
2020/12/19 08:49:33;;;;;;;9.77;2.67;;;20.80;43.20;;;;;;5033940;28;20025;-39
2020/12/19 08:51:58;;;;;;;11.13;2.85;;;20.80;43.50;;;;;;5033454;28;20105;-46
2020/12/19 08:54:26;;;;;;;10.35;2.78;;;20.80;43.10;;;;;;5032526;28;20463;-51
2020/12/19 08:56:52;;;;;;;7.20;2.38;;;20.90;43.60;;;;;;5033758;28;20037;-53
2020/12/19 08:59:26;;;;;;;9.60;2.97;;;20.90;44.00;;;;;;5023539;28;20462;-46
2020/12/19 09:01:55;;;;;;;7.78;2.55;;;21.00;43.70;;;;;;5032065;28;20025;-49
2020/12/19 09:04:22;;;;;;;6.22;2.55;;;21.00;43.70;;;;;;5031405;28;20041;-46
2020/12/19 09:06:55;;;;;;;12.50;2.47;;;20.90;43.90;;;;;;5032665;28;20037;-46
2020/12/19 09:09:28;;;;;;;7.18;2.70;;;21.00;44.00;;;;;;5031571;28;20478;-45
2020/12/19 09:12:12;;;;;;;8.40;2.28;;;21.00;43.90;;;;;;5032982;28;20478;-40
2020/12/19 09:14:37;;;;;;;3.53;2.10;;;21.10;44.00;;;;;;5031324;28;20029;-55
2020/12/19 09:17:03;;;;;;;7.15;2.40;;;21.20;44.40;;;;;;5033929;28;20029;-38
2020/12/19 09:19:29;;;;;;;7.68;3.13;;;21.20;44.40;;;;;;5032705;28;20550;-44
2020/12/19 09:21:59;;;;;;;6.38;2.63;;;21.20;44.60;;;;;;5033415;28;20026;-42
2020/12/19 09:24:26;;;;;;;6.40;2.72;;;21.20;44.40;;;;;;5034208;28;20033;-44
2020/12/19 09:26:51;;;;;;;5.25;2.85;;;21.20;44.50;;;;;;5033465;28;20119;-43
2020/12/19 09:29:18;;;;;;;7.05;2.50;;;21.30;44.50;;;;;;5033588;28;20542;-45
2020/12/19 09:31:44;;;;;;;4.07;2.10;;;21.30;44.70;;;;;;5033206;28;20029;-47
2020/12/19 09:34:10;;;;;;;7.15;2.30;;;21.40;44.60;;;;;;5029540;28;20057;-47
2020/12/19 09:36:38;;;;;;;4.63;2.13;;;21.40;44.50;;;;;;5032327;28;20482;-44
2020/12/19 09:39:04;;;;;;;10.15;2.42;;;21.40;44.60;;;;;;5032978;28;20053;-45
2020/12/19 09:41:31;;;;;;;4.38;2.25;;;21.40;44.40;;;;;;5033612;28;20037;-47
2020/12/19 09:43:58;;;;;;;8.70;2.47;;;21.40;44.30;;;;;;5032993;28;20032;-56
2020/12/19 09:46:24;;;;;;;5.38;2.67;;;21.50;44.50;;;;;;5033466;28;20037;-49
2020/12/19 09:48:51;;;;;;;7.68;2.60;;;21.50;44.50;;;;;;5031690;28;20037;-50
2020/12/19 09:51:17;;;;;;;9.25;2.60;;;21.60;44.50;;;;;;5032953;28;20033;-51
2020/12/19 09:53:43;;;;;;;12.10;2.72;;;21.60;44.50;;;;;;5032746;28;20368;-56
2020/12/19 09:56:09;;;;;;;7.07;2.55;;;21.70;44.90;;;;;;5030428;28;20290;-49
2020/12/19 09:58:35;;;;;;;6.88;2.63;;;21.60;45.20;;;;;;5033676;28;20029;-50
2020/12/19 10:01:01;;;;;;;9.00;2.55;;;21.70;45.50;;;;;;5032611;28;20029;-50
2020/12/19 10:03:28;;;;;;;8.75;2.78;;;21.70;45.70;;;;;;5048306;28;20028;-48
2020/12/19 10:05:54;;;;;;;12.98;2.97;;;21.70;45.90;;;;;;5030010;28;20021;-52
2020/12/19 10:08:21;;;;;;;6.70;2.92;;;21.70;46.00;;;;;;5031844;28;20128;-53
2020/12/19 10:10:47;;;;;;;10.25;3.17;;;21.70;46.10;;;;;;5031907;28;20103;-46
2020/12/19 10:13:13;;;;;;;7.80;3.17;;;21.70;46.00;;;;;;5025433;28;20486;-48
2020/12/19 10:15:55;;;;;;;8.25;3.20;;;21.70;45.50;;;;;;5048701;28;20021;-56
2020/12/19 10:18:22;;;;;;;9.68;3.55;;;21.60;45.30;;;;;;5033950;28;20087;-47
2020/12/19 10:20:49;;;;;;;7.53;3.13;;;21.60;45.40;;;;;;5032520;28;20044;-53
2020/12/19 10:23:15;;;;;;;10.15;3.83;;;21.60;45.20;;;;;;5033463;28;20482;-55
2020/12/19 10:25:48;;;;;;;10.57;4.43;;;21.60;45.30;;;;;;5032999;28;20065;-55
2020/12/19 10:28:13;;;;;;;9.27;4.47;;;21.60;45.40;;;;;;5032939;28;20021;-47
2020/12/19 10:30:39;;;;;;;13.82;6.18;;;21.60;45.40;;;;;;5033444;28;20159;-48
2020/12/19 10:33:05;;;;;;;8.68;4.75;;;21.60;45.50;;;;;;5031832;28;20033;-47
2020/12/19 10:35:31;;;;;;;14.85;4.38;;;21.60;45.80;;;;;;5032810;28;20044;-48
2020/12/19 10:37:57;;;;;;;9.38;4.35;;;21.60;45.60;;;;;;5031920;28;20042;-48
2020/12/19 10:40:22;;;;;;;11.20;4.45;;;21.60;45.40;;;;;;5033042;28;20037;-46
2020/12/19 10:42:48;;;;;;;7.03;3.67;;;21.60;45.80;;;;;;5032268;28;20096;-42
2020/12/19 10:45:14;;;;;;;10.93;4.60;;;21.70;45.90;;;;;;5032343;28;20037;-54
2020/12/19 10:47:51;;;;;;;10.23;4.15;;;21.80;45.70;;;;;;5032751;28;20051;-55
2020/12/19 10:50:19;;;;;;;7.03;3.38;;;21.80;45.70;;;;;;5032580;28;20026;-52
2020/12/19 10:52:47;;;;;;;9.80;3.97;;;21.80;46.00;;;;;;5029455;28;20045;-57
2020/12/19 10:55:14;;;;;;;11.02;3.50;;;21.90;45.60;;;;;;5024573;28;20039;-56
2020/12/19 10:57:40;;;;;;;6.65;3.60;;;22.00;45.60;;;;;;5032323;28;20037;-48
2020/12/19 11:00:06;;;;;;;7.13;3.45;;;21.90;46.20;;;;;;5030847;28;20029;-49
2020/12/19 11:02:33;;;;;;;7.20;3.90;;;21.90;46.20;;;;;;5031052;28;20362;-49
2020/12/19 11:04:59;;;;;;;11.50;4.25;;;21.90;46.20;;;;;;5031330;28;20038;-45
2020/12/19 11:07:25;;;;;;;8.20;4.05;;;22.00;46.10;;;;;;5032065;28;20037;-50
2020/12/19 11:09:52;;;;;;;8.90;4.38;;;22.10;46.40;;;;;;5031208;28;20033;-52
2020/12/19 11:12:18;;;;;;;8.25;4.70;;;22.10;46.30;;;;;;5032199;28;20429;-51
2020/12/19 11:14:49;;;;;;;11.65;4.80;;;22.30;46.50;;;;;;5032085;28;20021;-54
2020/12/19 11:17:15;;;;;;;12.82;5.65;;;22.30;46.00;;;;;;5031999;28;20479;-45
2020/12/19 11:19:41;;;;;;;6.47;4.20;;;22.30;46.60;;;;;;5032245;28;20105;-50
2020/12/19 11:22:06;;;;;;;9.20;5.20;;;22.40;46.00;;;;;;5031291;28;20034;-46
2020/12/19 11:24:32;;;;;;;11.02;4.72;;;22.50;46.00;;;;;;5032134;28;20382;-54
2020/12/19 11:26:59;;;;;;;7.43;4.05;;;22.40;46.10;;;;;;5031291;28;20034;-47
2020/12/19 11:29:24;;;;;;;8.15;4.95;;;22.50;46.10;;;;;;5032019;28;20379;-45
2020/12/19 11:31:50;;;;;;;10.70;4.72;;;22.40;46.10;;;;;;5030685;28;20087;-46
2020/12/19 11:34:16;;;;;;;9.65;5.10;;;22.30;46.40;;;;;;5032225;28;20171;-47
2020/12/19 11:36:42;;;;;;;7.22;4.65;;;22.30;46.60;;;;;;5032070;28;20116;-49
2020/12/19 11:39:11;;;;;;;8.48;4.32;;;22.30;46.80;;;;;;5030317;28;20018;-54
2020/12/19 11:41:40;;;;;;;9.00;4.60;;;22.30;46.80;;;;;;5032053;28;20025;-55
2020/12/19 11:44:07;;;;;;;5.65;4.25;;;22.20;46.70;;;;;;5030709;28;20037;-56
2020/12/19 11:46:33;;;;;;;10.40;4.78;;;22.10;46.90;;;;;;5022438;28;20040;-58
2020/12/19 11:48:59;;;;;;;8.98;4.07;;;22.10;47.10;;;;;;5046616;28;20026;-57
2020/12/19 11:51:30;;;;;;;10.20;5.07;;;22.10;47.10;;;;;;5031724;28;20026;-56
2020/12/19 11:53:57;;;;;;;7.00;4.35;;;22.20;46.90;;;;;;5030591;28;20025;-54
2020/12/19 11:56:23;;;;;;;7.03;4.45;;;22.10;47.00;;;;;;5031556;28;20456;-54
2020/12/19 11:58:48;;;;;;;6.00;3.70;;;22.10;47.60;;;;;;5031015;28;20023;-57
2020/12/19 12:01:14;;;;;;;6.70;4.38;;;22.10;47.10;;;;;;5031086;28;20036;-55
2020/12/19 12:03:40;;;;;;;6.43;3.42;;;22.10;47.20;;;;;;5032051;28;20026;-57
2020/12/19 12:06:05;;;;;;;8.65;4.10;;;22.10;47.10;;;;;;5030842;28;20076;-51
2020/12/19 12:08:31;;;;;;;8.88;4.13;;;22.10;47.10;;;;;;5031301;28;20030;-53
2020/12/19 12:10:57;;;;;;;8.68;3.35;;;22.10;46.90;;;;;;5030387;28;20487;-54
2020/12/19 12:13:23;;;;;;;5.65;3.72;;;22.10;46.90;;;;;;5031574;28;20036;-51
2020/12/19 12:15:49;;;;;;;6.97;3.78;;;22.10;47.00;;;;;;5029390;28;20026;-59
2020/12/19 12:18:15;;;;;;;6.50;3.38;;;22.00;47.00;;;;;;5030571;28;20072;-55
2020/12/19 12:20:41;;;;;;;6.15;3.22;;;22.00;47.00;;;;;;5031274;28;20049;-43
2020/12/19 12:23:06;;;;;;;6.82;3.75;;;22.00;47.00;;;;;;5030402;28;20188;-42
2020/12/19 12:25:32;;;;;;;7.50;3.95;;;22.00;46.90;;;;;;5030599;28;20044;-57
2020/12/19 12:27:58;;;;;;;5.90;3.58;;;21.90;46.90;;;;;;5030177;28;20025;-56
2020/12/19 12:30:24;;;;;;;5.65;3.10;;;21.90;47.00;;;;;;5030245;28;20025;-55
2020/12/19 12:32:50;;;;;;;5.13;3.45;;;21.90;46.90;;;;;;5029830;28;20181;-54
2020/12/19 12:35:15;;;;;;;4.95;3.28;;;21.90;46.90;;;;;;5030972;28;20041;-58
2020/12/19 12:37:41;;;;;;;8.13;3.08;;;21.90;47.00;;;;;;5030552;28;20475;-60
2020/12/19 12:40:07;;;;;;;7.47;3.28;;;21.90;47.00;;;;;;5030166;28;20083;-53
2020/12/19 12:42:33;;;;;;;6.03;3.40;;;21.90;47.00;;;;;;5031212;28;20026;-52
2020/12/19 12:44:58;;;;;;;5.30;3.13;;;21.90;46.90;;;;;;5030194;28;20037;-57
2020/12/19 12:47:24;;;;;;;5.30;3.30;;;21.90;47.00;;;;;;5046427;28;20519;-56